Time;durP1;ratioP1;P1;durP2;ratioP2;P2;SDS_P1;SDS_P2;PMS_P1;PMS_P2;Temp;Humidity;BMP_temperature;BMP_pressure;BME280_temperature;BME280_humidity;BME280_pressure;Samples;Min_cycle;Max_cycle;Signal;HPM_P1;HPM_P2
2023/06/13 00:01:53;;;;;;;7.63;3.05;;;18.00;60.90;;;;;;5043929;28;20040;-47
2023/06/13 00:04:23;;;;;;;4.30;2.47;;;17.90;61.30;;;;;;5051102;28;20033;-46
2023/06/13 00:06:57;;;;;;;5.03;3.10;;;17.90;61.30;;;;;;5047217;28;20037;-46
2023/06/13 00:09:25;;;;;;;5.60;2.80;;;17.90;61.80;;;;;;5013552;28;20037;-46
2023/06/13 00:11:52;;;;;;;8.20;3.30;;;17.90;62.20;;;;;;5029297;28;20053;-46
2023/06/13 00:14:21;;;;;;;5.47;2.70;;;17.90;62.00;;;;;;5046837;28;20032;-47
2023/06/13 00:16:50;;;;;;;5.22;3.60;;;17.80;62.10;;;;;;5032160;28;20042;-46
2023/06/13 00:19:18;;;;;;;10.25;3.22;;;17.80;61.80;;;;;;5021573;28;20074;-46
2023/06/13 00:21:45;;;;;;;7.07;2.65;;;17.70;62.10;;;;;;5033034;28;20026;-47
2023/06/13 00:24:12;;;;;;;8.93;3.15;;;17.70;62.80;;;;;;5037545;28;20044;-46
2023/06/13 00:26:39;;;;;;;4.45;3.05;;;17.60;63.50;;;;;;5052715;28;20027;-48
2023/06/13 00:29:05;;;;;;;5.53;2.85;;;17.60;64.10;;;;;;5046721;28;20104;-49
2023/06/13 00:31:32;;;;;;;4.70;3.22;;;17.50;64.10;;;;;;5034886;28;20041;-46
2023/06/13 00:34:00;;;;;;;6.82;3.30;;;17.50;63.90;;;;;;5039687;28;20025;-46
2023/06/13 00:36:28;;;;;;;4.35;3.22;;;17.40;64.20;;;;;;5052643;28;20040;-50
2023/06/13 00:39:02;;;;;;;5.95;3.45;;;17.40;64.90;;;;;;5033163;28;20454;-47
2023/06/13 00:41:31;;;;;;;5.28;3.00;;;17.30;65.20;;;;;;5052689;28;20029;-47
2023/06/13 00:44:01;;;;;;;8.70;3.28;;;17.30;64.80;;;;;;5021688;28;20040;-46
2023/06/13 00:46:36;;;;;;;4.38;2.67;;;17.30;65.50;;;;;;5027833;28;20083;-47
2023/06/13 00:49:04;;;;;;;7.05;3.10;;;17.20;65.60;;;;;;5013263;28;20025;-47
2023/06/13 00:51:40;;;;;;;6.15;3.33;;;17.20;66.10;;;;;;5030944;28;20056;-47
2023/06/13 00:54:10;;;;;;;4.68;2.83;;;17.10;67.10;;;;;;5012631;28;20379;-46
2023/06/13 00:56:40;;;;;;;5.47;3.10;;;17.10;67.40;;;;;;5032755;28;20056;-46
2023/06/13 00:59:08;;;;;;;6.18;2.90;;;17.10;67.50;;;;;;5034878;28;20041;-46
2023/06/13 01:01:40;;;;;;;4.25;2.78;;;17.00;68.00;;;;;;5041153;28;20029;-46
2023/06/13 01:04:07;;;;;;;6.72;2.95;;;16.90;68.40;;;;;;5055261;28;20029;-48
2023/06/13 01:06:38;;;;;;;6.35;3.65;;;16.90;68.00;;;;;;5034772;28;20034;-47
2023/06/13 01:09:11;;;;;;;5.40;2.67;;;16.80;68.00;;;;;;5042682;28;20021;-45
2023/06/13 01:11:58;;;;;;;5.15;3.00;;;16.70;67.70;;;;;;5035418;28;20037;-45
2023/06/13 01:14:51;;;;;;;8.57;2.78;;;16.60;67.60;;;;;;5031758;28;20409;-48
2023/06/13 01:17:24;;;;;;;4.65;2.70;;;16.50;66.30;;;;;;5035687;28;20022;-46
2023/06/13 01:20:04;;;;;;;5.78;2.80;;;16.50;66.70;;;;;;5017335;28;20022;-45
2023/06/13 01:22:38;;;;;;;4.22;2.65;;;16.50;65.90;;;;;;5036152;28;20036;-45
2023/06/13 01:25:16;;;;;;;4.93;3.08;;;16.50;66.30;;;;;;5016482;28;20424;-47
2023/06/13 01:27:45;;;;;;;5.78;3.90;;;16.50;65.80;;;;;;5046071;28;20464;-47
2023/06/13 01:30:13;;;;;;;4.78;2.70;;;16.50;66.00;;;;;;5032463;28;20049;-46
2023/06/13 01:32:41;;;;;;;5.43;3.95;;;16.40;66.40;;;;;;5028485;28;20037;-45
2023/06/13 01:35:07;;;;;;;8.05;3.35;;;16.40;67.00;;;;;;5028746;28;20033;-46
2023/06/13 01:37:34;;;;;;;7.28;3.60;;;16.40;67.50;;;;;;5038200;28;20389;-47
2023/06/13 01:40:03;;;;;;;4.28;2.90;;;16.40;67.90;;;;;;5055744;28;20404;-47
2023/06/13 01:42:29;;;;;;;7.38;3.78;;;16.40;68.10;;;;;;5048023;28;20026;-45
2023/06/13 01:44:56;;;;;;;5.68;2.58;;;16.30;68.50;;;;;;5049078;28;20031;-46
2023/06/13 01:47:34;;;;;;;6.10;3.58;;;16.30;68.60;;;;;;5029572;28;20022;-45
2023/06/13 01:50:29;;;;;;;5.35;3.60;;;16.30;68.80;;;;;;5050081;28;20029;-46
2023/06/13 01:53:16;;;;;;;7.07;3.72;;;16.20;68.80;;;;;;5055588;28;20055;-46
2023/06/13 01:55:56;;;;;;;7.10;2.95;;;16.10;69.10;;;;;;5028603;28;20068;-45
2023/06/13 01:58:59;;;;;;;5.47;2.83;;;16.10;69.00;;;;;;5027001;28;20029;-46
2023/06/13 02:01:32;;;;;;;4.85;2.58;;;16.00;69.20;;;;;;5032831;28;20041;-45
2023/06/13 02:03:58;;;;;;;6.50;2.65;;;15.90;69.60;;;;;;5037840;28;20033;-47
2023/06/13 02:06:28;;;;;;;5.88;3.55;;;15.90;69.50;;;;;;5033934;28;20013;-49
2023/06/13 02:08:56;;;;;;;6.82;3.30;;;15.90;69.70;;;;;;5032955;28;20034;-46
2023/06/13 02:11:25;;;;;;;5.78;3.65;;;15.90;70.00;;;;;;5022353;28;20054;-45
2023/06/13 02:13:53;;;;;;;7.22;3.15;;;15.80;70.30;;;;;;5045225;28;20051;-47
2023/06/13 02:16:25;;;;;;;4.85;3.38;;;15.80;70.60;;;;;;5049343;28;20398;-45
2023/06/13 02:18:53;;;;;;;5.97;2.80;;;15.80;70.80;;;;;;5042072;28;20417;-50
2023/06/13 02:21:21;;;;;;;5.75;3.30;;;15.70;71.00;;;;;;5037687;28;20029;-47
2023/06/13 02:23:48;;;;;;;5.72;2.95;;;15.70;71.30;;;;;;5029728;28;20046;-46
2023/06/13 02:26:16;;;;;;;4.70;3.08;;;15.60;71.50;;;;;;5033923;28;20082;-45
2023/06/13 02:28:47;;;;;;;5.15;3.50;;;15.60;71.60;;;;;;5026944;28;20451;-46
2023/06/13 02:31:15;;;;;;;4.05;3.00;;;15.60;71.70;;;;;;5031203;28;20106;-45
2023/06/13 02:33:43;;;;;;;4.85;2.95;;;15.60;71.60;;;;;;5052996;28;20033;-46
2023/06/13 02:36:10;;;;;;;5.13;2.90;;;15.50;71.70;;;;;;5054727;28;20090;-45
2023/06/13 02:38:39;;;;;;;4.90;3.25;;;15.50;71.80;;;;;;5054932;28;20423;-45
2023/06/13 02:41:06;;;;;;;4.72;2.92;;;15.50;71.80;;;;;;5015331;28;20041;-46
2023/06/13 02:43:31;;;;;;;4.90;2.88;;;15.50;71.80;;;;;;5026415;28;20029;-44
2023/06/13 02:46:00;;;;;;;5.65;3.33;;;15.40;72.00;;;;;;5050238;28;20082;-46
2023/06/13 02:48:29;;;;;;;6.78;3.03;;;15.40;72.20;;;;;;5038516;28;20478;-46
2023/06/13 02:50:57;;;;;;;6.95;3.17;;;15.40;72.40;;;;;;5034554;28;20431;-45
2023/06/13 02:53:26;;;;;;;4.80;2.47;;;15.30;72.60;;;;;;5027992;28;20034;-46
2023/06/13 02:55:54;;;;;;;5.07;3.03;;;15.30;72.50;;;;;;5047200;28;20043;-45
2023/06/13 02:58:21;;;;;;;6.63;2.80;;;15.30;72.70;;;;;;5047196;28;20068;-46
2023/06/13 03:00:51;;;;;;;6.72;2.50;;;15.20;72.50;;;;;;5021798;28;20029;-46
2023/06/13 03:03:18;;;;;;;4.47;2.85;;;15.30;73.00;;;;;;5051852;28;20036;-48
2023/06/13 03:05:47;;;;;;;5.25;2.60;;;15.30;73.20;;;;;;5052719;28;20025;-45
2023/06/13 03:08:18;;;;;;;5.95;3.28;;;15.20;73.20;;;;;;5026160;28;20096;-45
2023/06/13 03:10:48;;;;;;;5.47;3.38;;;15.20;73.30;;;;;;5023519;28;20025;-45
2023/06/13 03:13:16;;;;;;;;;;;15.20;73.80;;;;;;5041596;28;20052;-46
2023/06/13 03:15:45;;;;;;;4.85;2.75;;;15.20;74.20;;;;;;5029777;28;19909;-46
2023/06/13 03:18:13;;;;;;;5.70;2.95;;;15.20;74.30;;;;;;5023099;28;20114;-45
2023/06/13 03:20:45;;;;;;;6.25;3.28;;;15.20;74.40;;;;;;5014767;28;20030;-45
2023/06/13 03:23:15;;;;;;;6.03;2.60;;;15.20;74.50;;;;;;5028255;28;20029;-47
2023/06/13 03:25:43;;;;;;;5.05;2.55;;;15.20;74.40;;;;;;5013995;28;20368;-45
2023/06/13 03:28:14;;;;;;;7.55;3.67;;;15.20;74.50;;;;;;5016132;28;20089;-47
2023/06/13 03:30:41;;;;;;;5.55;3.08;;;15.20;74.50;;;;;;5046516;28;20029;-47
2023/06/13 03:33:12;;;;;;;5.85;2.75;;;15.20;74.80;;;;;;5035456;28;20038;-47
2023/06/13 03:35:40;;;;;;;4.82;2.70;;;15.20;74.90;;;;;;5013862;28;20117;-45
2023/06/13 03:38:09;;;;;;;6.65;2.38;;;15.20;74.90;;;;;;5013765;28;20709;-46
2023/06/13 03:40:39;;;;;;;6.00;3.22;;;15.20;74.50;;;;;;5047260;28;20394;-45
2023/06/13 03:43:04;;;;;;;4.00;2.80;;;15.20;74.40;;;;;;5014523;28;20029;-47
2023/06/13 03:45:31;;;;;;;6.20;2.50;;;15.20;74.10;;;;;;5024242;28;20026;-47
2023/06/13 03:47:58;;;;;;;6.03;2.88;;;15.20;74.00;;;;;;5053453;28;20029;-45
2023/06/13 03:50:24;;;;;;;6.18;2.42;;;15.30;74.00;;;;;;5050443;28;20043;-45
2023/06/13 03:52:51;;;;;;;5.22;2.60;;;15.20;73.80;;;;;;5042200;28;20036;-47
2023/06/13 03:55:19;;;;;;;8.02;2.72;;;15.20;73.40;;;;;;5034398;28;20140;-47
2023/06/13 03:57:50;;;;;;;7.15;2.85;;;15.30;73.50;;;;;;5053100;28;20075;-45
2023/06/13 04:00:17;;;;;;;6.15;2.50;;;15.30;72.80;;;;;;5040293;28;20108;-45
2023/06/13 04:02:45;;;;;;;5.25;2.90;;;15.30;71.60;;;;;;5043836;28;20068;-45
2023/06/13 04:05:13;;;;;;;4.68;2.40;;;15.30;71.60;;;;;;5046798;28;20039;-45
2023/06/13 04:07:42;;;;;;;4.47;2.20;;;15.30;70.60;;;;;;5045927;28;20155;-45
2023/06/13 04:10:11;;;;;;;5.27;2.20;;;15.30;69.80;;;;;;5051650;28;20040;-45
2023/06/13 04:12:38;;;;;;;6.10;2.50;;;15.30;69.70;;;;;;5016432;28;20305;-45
2023/06/13 04:15:06;;;;;;;3.13;2.08;;;15.40;70.20;;;;;;5028667;28;20288;-48
2023/06/13 04:17:33;;;;;;;5.50;2.50;;;15.40;70.30;;;;;;5044238;28;20083;-45
2023/06/13 04:20:00;;;;;;;4.30;2.30;;;15.40;70.60;;;;;;5013859;28;20107;-46
2023/06/13 04:22:27;;;;;;;5.55;2.20;;;15.50;71.10;;;;;;5031576;28;20026;-44
2023/06/13 04:24:54;;;;;;;8.05;2.40;;;15.50;69.40;;;;;;5028924;28;20549;-47
2023/06/13 04:27:30;;;;;;;8.70;2.22;;;15.60;68.00;;;;;;5029481;28;20026;-45
2023/06/13 04:29:57;;;;;;;4.38;2.58;;;15.60;68.00;;;;;;5028468;28;20033;-45
2023/06/13 04:32:27;;;;;;;7.05;2.17;;;15.70;67.90;;;;;;5025500;28;20084;-45
2023/06/13 04:34:55;;;;;;;8.75;2.60;;;15.90;68.10;;;;;;5033889;28;20109;-45
2023/06/13 04:37:25;;;;;;;6.35;2.78;;;15.90;68.00;;;;;;5030297;28;20040;-47
2023/06/13 04:39:53;;;;;;;5.55;2.47;;;16.10;67.80;;;;;;5031558;28;20087;-46
2023/06/13 04:42:29;;;;;;;5.43;2.28;;;16.20;67.20;;;;;;5034583;28;20025;-44
2023/06/13 04:45:00;;;;;;;5.25;2.78;;;16.40;67.60;;;;;;5030263;28;20056;-45
2023/06/13 04:47:31;;;;;;;5.68;2.40;;;16.50;67.80;;;;;;5035894;28;20121;-45
2023/06/13 04:49:58;;;;;;;4.28;2.60;;;16.50;67.90;;;;;;5050212;28;20021;-45
2023/06/13 04:52:26;;;;;;;4.95;2.42;;;16.50;68.20;;;;;;5031867;28;20064;-45
2023/06/13 04:54:54;;;;;;;6.97;3.20;;;16.60;68.90;;;;;;5036141;28;20474;-45
2023/06/13 04:57:21;;;;;;;4.32;2.17;;;16.50;68.90;;;;;;5034988;28;20025;-47
2023/06/13 04:59:51;;;;;;;7.60;3.03;;;16.50;69.50;;;;;;5041165;28;20657;-48
2023/06/13 05:02:18;;;;;;;5.25;2.50;;;16.60;70.40;;;;;;5033032;28;20376;-46
2023/06/13 05:04:47;;;;;;;6.45;2.83;;;16.60;70.70;;;;;;5045733;28;20051;-45
2023/06/13 05:07:16;;;;;;;6.35;2.42;;;16.50;70.70;;;;;;5029735;28;20047;-46
2023/06/13 05:09:48;;;;;;;5.55;2.85;;;16.50;70.70;;;;;;5035339;28;20025;-47
2023/06/13 05:12:14;;;;;;;5.28;2.90;;;16.50;71.30;;;;;;5039574;28;20080;-45
2023/06/13 05:14:40;;;;;;;5.93;2.92;;;16.50;71.60;;;;;;5032416;28;20037;-47
2023/06/13 05:17:12;;;;;;;7.03;3.42;;;16.50;71.50;;;;;;5045334;28;20047;-46
2023/06/13 05:19:38;;;;;;;7.95;2.38;;;16.60;72.20;;;;;;5052959;28;20484;-45
2023/06/13 05:22:06;;;;;;;5.38;2.47;;;16.50;72.20;;;;;;5033894;28;20029;-48
2023/06/13 05:24:33;;;;;;;11.95;2.67;;;16.50;72.30;;;;;;5034944;28;20029;-45
2023/06/13 05:27:00;;;;;;;6.45;2.95;;;16.50;73.00;;;;;;5023976;28;20026;-46
2023/06/13 05:29:29;;;;;;;4.97;2.78;;;16.50;73.40;;;;;;5034541;28;20030;-47
2023/06/13 05:31:57;;;;;;;8.35;4.22;;;16.50;73.50;;;;;;5034199;28;20049;-45
2023/06/13 05:34:24;;;;;;;8.25;3.47;;;16.50;73.50;;;;;;5034033;28;20078;-46
2023/06/13 05:36:50;;;;;;;3.92;2.45;;;16.50;73.10;;;;;;5020081;28;20406;-45
2023/06/13 05:39:17;;;;;;;7.05;2.55;;;16.60;72.60;;;;;;5024948;28;20025;-47
2023/06/13 05:41:47;;;;;;;7.88;3.33;;;16.60;72.70;;;;;;5031030;28;20512;-47
2023/06/13 05:44:13;;;;;;;6.60;2.38;;;16.70;72.10;;;;;;5034086;28;20045;-46
2023/06/13 05:46:41;;;;;;;6.75;2.60;;;16.80;72.30;;;;;;5034994;28;20104;-51
2023/06/13 05:49:08;;;;;;;3.80;2.10;;;16.90;71.50;;;;;;5032167;28;20124;-46
2023/06/13 05:51:36;;;;;;;5.10;2.83;;;16.90;70.90;;;;;;5034613;28;20100;-49
2023/06/13 05:54:04;;;;;;;6.20;2.78;;;17.10;69.90;;;;;;5031261;28;20462;-51
2023/06/13 05:56:36;;;;;;;5.82;2.15;;;17.40;68.10;;;;;;5038998;28;20032;-46
2023/06/13 05:59:03;;;;;;;4.30;2.22;;;17.80;67.90;;;;;;5052450;28;20025;-45
2023/06/13 06:01:31;;;;;;;5.65;2.17;;;18.10;66.20;;;;;;5032450;28;20377;-46
2023/06/13 06:03:58;;;;;;;5.53;2.05;;;18.40;64.20;;;;;;5048376;28;20026;-49
2023/06/13 06:06:25;;;;;;;6.00;1.92;;;18.80;63.30;;;;;;5025426;28;20037;-48
2023/06/13 06:08:52;;;;;;;4.63;2.58;;;18.90;62.70;;;;;;5014939;28;20161;-47
2023/06/13 06:11:19;;;;;;;7.07;2.33;;;18.90;63.60;;;;;;5021270;28;20082;-47
2023/06/13 06:13:46;;;;;;;3.42;2.13;;;19.20;62.90;;;;;;5043963;28;20079;-47
2023/06/13 06:16:12;;;;;;;9.90;2.15;;;19.40;62.20;;;;;;5040468;28;20028;-46
2023/06/13 06:18:41;;;;;;;4.80;2.00;;;19.40;61.10;;;;;;5020255;28;20034;-46
2023/06/13 06:21:07;;;;;;;3.57;1.90;;;19.50;61.20;;;;;;5016088;28;20044;-49
2023/06/13 06:23:36;;;;;;;6.22;1.90;;;19.70;60.70;;;;;;5030992;28;20029;-47
2023/06/13 06:26:03;;;;;;;3.80;1.90;;;19.70;60.40;;;;;;5027427;28;20033;-48
2023/06/13 06:28:30;;;;;;;6.88;2.38;;;19.40;60.80;;;;;;5026914;28;20037;-51
2023/06/13 06:30:57;;;;;;;5.53;2.33;;;19.40;60.60;;;;;;5023510;28;20045;-49
2023/06/13 06:33:27;;;;;;;5.05;2.63;;;19.30;61.20;;;;;;5019373;28;20067;-48
2023/06/13 06:35:54;;;;;;;5.18;2.13;;;19.30;60.80;;;;;;5023501;28;20055;-50
2023/06/13 06:38:24;;;;;;;5.80;2.20;;;19.20;60.50;;;;;;5029918;28;20033;-48
2023/06/13 06:40:53;;;;;;;4.63;2.38;;;19.10;59.90;;;;;;5028265;28;20473;-51
2023/06/13 06:43:20;;;;;;;4.25;2.20;;;18.90;61.10;;;;;;5028173;28;20032;-47
2023/06/13 06:45:51;;;;;;;6.85;2.72;;;18.90;61.60;;;;;;5028940;28;20021;-50
2023/06/13 06:48:20;;;;;;;4.63;2.45;;;18.90;62.10;;;;;;5028027;28;20022;-46
2023/06/13 06:50:45;;;;;;;5.88;2.53;;;19.10;62.50;;;;;;5023365;28;20029;-49
2023/06/13 06:53:13;;;;;;;5.07;2.60;;;19.10;63.00;;;;;;5028713;28;20041;-45
2023/06/13 06:55:42;;;;;;;5.45;2.30;;;19.00;60.70;;;;;;5030098;28;20388;-48
2023/06/13 06:58:07;;;;;;;5.78;2.95;;;18.90;62.30;;;;;;5025881;28;20113;-48
2023/06/13 07:00:34;;;;;;;5.22;2.58;;;18.90;62.80;;;;;;5027813;28;21164;-53
2023/06/13 07:03:00;;;;;;;4.63;2.35;;;18.90;63.60;;;;;;5026970;28;20037;-46
2023/06/13 07:05:29;;;;;;;4.75;2.25;;;18.90;62.90;;;;;;5024541;28;20068;-46
2023/06/13 07:07:55;;;;;;;6.32;3.08;;;18.90;63.50;;;;;;5029420;28;20029;-47
2023/06/13 07:10:22;;;;;;;6.47;2.80;;;18.90;62.80;;;;;;5028669;28;20437;-46
2023/06/13 07:12:49;;;;;;;5.45;2.33;;;19.00;62.40;;;;;;5024905;28;20155;-47
2023/06/13 07:15:16;;;;;;;3.95;2.08;;;19.20;62.90;;;;;;5022048;28;20037;-49
2023/06/13 07:17:42;;;;;;;5.10;2.28;;;19.20;62.80;;;;;;5027471;28;20861;-47
2023/06/13 07:20:11;;;;;;;7.95;2.80;;;19.30;63.20;;;;;;5029676;28;20037;-47
2023/06/13 07:22:37;;;;;;;8.10;2.42;;;19.80;61.70;;;;;;5025889;28;20037;-46
2023/06/13 07:25:04;;;;;;;6.88;2.17;;;20.40;60.20;;;;;;5028368;28;20399;-47
2023/06/13 07:27:33;;;;;;;6.40;2.30;;;20.90;58.30;;;;;;5027305;28;20105;-50
2023/06/13 07:30:00;;;;;;;7.35;2.75;;;21.10;57.20;;;;;;5031009;28;20044;-48
2023/06/13 07:32:27;;;;;;;7.38;1.90;;;21.40;55.00;;;;;;5028107;28;20410;-50
2023/06/13 07:34:53;;;;;;;4.97;1.60;;;21.90;55.70;;;;;;5025750;28;20021;-49
2023/06/13 07:37:20;;;;;;;7.25;2.58;;;22.20;55.70;;;;;;5026513;28;20026;-49
2023/06/13 07:39:45;;;;;;;4.55;2.33;;;22.30;53.60;;;;;;5024437;28;20033;-47
2023/06/13 07:42:15;;;;;;;6.53;2.60;;;22.30;53.90;;;;;;5023100;28;20048;-47
2023/06/13 07:44:41;;;;;;;3.20;1.70;;;22.40;53.20;;;;;;5024491;28;21314;-47
2023/06/13 07:47:08;;;;;;;4.28;2.30;;;22.10;53.10;;;;;;5025202;28;20042;-48
2023/06/13 07:49:35;;;;;;;7.15;2.30;;;22.30;53.10;;;;;;5027892;28;20045;-47
2023/06/13 07:52:03;;;;;;;3.45;2.13;;;22.50;52.30;;;;;;5030462;28;20450;-48
2023/06/13 07:54:30;;;;;;;7.07;2.20;;;22.70;53.10;;;;;;5026917;28;20034;-49
2023/06/13 07:56:57;;;;;;;5.55;2.40;;;23.00;53.00;;;;;;5026064;28;20022;-49
2023/06/13 07:59:24;;;;;;;4.93;2.40;;;23.30;51.80;;;;;;5027666;28;20033;-52
2023/06/13 08:01:51;;;;;;;3.80;2.38;;;23.50;49.00;;;;;;5025635;28;20466;-48
2023/06/13 08:04:18;;;;;;;5.47;2.08;;;23.30;48.30;;;;;;5025280;28;20094;-47
2023/06/13 08:06:45;;;;;;;5.10;2.47;;;23.30;49.30;;;;;;5026848;28;20406;-50
2023/06/13 08:09:12;;;;;;;6.13;2.10;;;23.60;47.90;;;;;;5024476;28;20557;-46
2023/06/13 08:11:39;;;;;;;3.50;2.05;;;23.90;48.10;;;;;;5027476;28;20033;-46
2023/06/13 08:14:07;;;;;;;3.83;1.83;;;23.80;44.80;;;;;;5025355;28;20140;-47
2023/06/13 08:16:36;;;;;;;4.30;1.80;;;23.40;45.50;;;;;;5026659;28;20029;-51
2023/06/13 08:19:06;;;;;;;6.35;1.92;;;23.70;45.60;;;;;;5024573;28;20036;-47
2023/06/13 08:21:33;;;;;;;4.05;1.48;;;23.80;44.00;;;;;;5021650;28;20087;-47
2023/06/13 08:24:00;;;;;;;3.33;1.55;;;23.60;44.50;;;;;;5027124;28;20033;-49
2023/06/13 08:26:32;;;;;;;4.13;1.83;;;23.30;43.90;;;;;;5024289;28;20111;-47
2023/06/13 08:29:02;;;;;;;4.10;2.17;;;23.60;44.50;;;;;;5023503;28;20100;-47
2023/06/13 08:31:31;;;;;;;7.53;2.10;;;23.60;45.20;;;;;;5026547;28;20025;-48
2023/06/13 08:33:59;;;;;;;6.17;2.03;;;23.80;50.00;;;;;;5025396;28;20029;-48
2023/06/13 08:36:27;;;;;;;7.55;1.95;;;23.60;51.30;;;;;;5027371;28;20462;-46
2023/06/13 08:39:00;;;;;;;6.10;2.90;;;23.40;50.90;;;;;;5025465;28;20030;-47
2023/06/13 08:41:30;;;;;;;3.72;2.45;;;23.40;50.90;;;;;;5026884;28;20068;-47
2023/06/13 08:43:58;;;;;;;3.58;1.80;;;23.40;50.10;;;;;;5024448;28;20056;-47
2023/06/13 08:46:29;;;;;;;6.50;2.25;;;23.80;50.50;;;;;;5028482;28;20026;-47
2023/06/13 08:48:56;;;;;;;6.75;2.10;;;23.90;49.70;;;;;;5027883;28;20029;-50
2023/06/13 08:51:22;;;;;;;5.68;1.95;;;24.20;49.20;;;;;;5029884;28;20017;-47
2023/06/13 08:53:53;;;;;;;5.88;1.92;;;24.50;51.90;;;;;;5031291;28;20451;-49
2023/06/13 08:56:25;;;;;;;7.07;1.85;;;24.70;50.30;;;;;;5029887;28;20135;-47
2023/06/13 08:58:58;;;;;;;4.88;2.00;;;24.40;48.70;;;;;;5024241;28;20091;-49
2023/06/13 09:01:27;;;;;;;7.28;2.30;;;24.60;51.30;;;;;;5028120;28;20424;-53
2023/06/13 09:03:57;;;;;;;4.43;2.13;;;24.40;49.60;;;;;;5024691;28;20078;-49
2023/06/13 09:06:24;;;;;;;7.70;2.90;;;23.90;49.10;;;;;;5024834;28;20342;-50
2023/06/13 09:08:53;;;;;;;4.50;2.10;;;23.90;51.90;;;;;;5028515;28;20437;-47
2023/06/13 09:11:19;;;;;;;4.78;1.77;;;23.70;51.90;;;;;;5025122;28;20033;-47
2023/06/13 09:13:51;;;;;;;6.53;2.50;;;23.70;52.70;;;;;;5025822;28;20040;-47
2023/06/13 09:16:19;;;;;;;3.65;2.08;;;24.00;50.60;;;;;;5028648;28;20030;-48
2023/06/13 09:18:47;;;;;;;6.30;2.15;;;24.10;50.50;;;;;;5027073;28;20053;-51
2023/06/13 09:21:13;;;;;;;5.75;2.50;;;24.40;51.30;;;;;;5030253;28;20033;-50
2023/06/13 09:23:40;;;;;;;4.82;2.33;;;24.60;52.00;;;;;;5031419;28;20327;-49
2023/06/13 09:26:08;;;;;;;3.65;2.17;;;23.90;48.40;;;;;;5026915;28;20060;-48
2023/06/13 09:28:52;;;;;;;7.28;2.40;;;23.90;50.20;;;;;;5028450;28;20025;-49
2023/06/13 09:31:20;;;;;;;7.80;2.42;;;23.70;51.50;;;;;;5031111;28;20029;-49
2023/06/13 09:33:47;;;;;;;8.73;2.35;;;23.90;53.50;;;;;;5028783;28;20034;-48
2023/06/13 09:36:16;;;;;;;11.93;2.40;;;24.10;50.00;;;;;;5028864;28;20029;-49
2023/06/13 09:38:44;;;;;;;7.95;2.22;;;24.00;48.90;;;;;;5030658;28;20799;-49
2023/06/13 09:41:18;;;;;;;4.95;2.55;;;24.00;50.40;;;;;;5026836;28;20042;-49
2023/06/13 09:43:45;;;;;;;4.30;2.10;;;24.00;48.90;;;;;;5028750;28;20030;-48
2023/06/13 09:46:13;;;;;;;6.15;2.28;;;24.20;50.50;;;;;;5027808;28;20153;-49
2023/06/13 09:48:44;;;;;;;5.80;1.75;;;24.10;49.80;;;;;;5031922;28;20112;-48
2023/06/13 09:51:15;;;;;;;4.97;2.50;;;24.10;50.40;;;;;;5030596;28;20117;-47
2023/06/13 09:53:46;;;;;;;4.28;2.40;;;24.10;50.80;;;;;;5031599;28;20033;-48
2023/06/13 09:56:15;;;;;;;4.95;2.13;;;24.10;50.70;;;;;;5029763;28;20398;-49
2023/06/13 09:58:42;;;;;;;4.03;2.13;;;24.00;51.30;;;;;;5031384;28;20036;-48
2023/06/13 10:01:14;;;;;;;4.05;1.65;;;24.10;51.50;;;;;;5029584;28;20041;-48
2023/06/13 10:03:43;;;;;;;5.03;2.30;;;24.10;49.30;;;;;;5032193;28;20716;-48
2023/06/13 10:06:09;;;;;;;3.58;2.05;;;24.00;49.40;;;;;;5032181;28;20040;-48
2023/06/13 10:08:36;;;;;;;5.88;2.13;;;24.20;52.10;;;;;;5030330;28;20398;-48
2023/06/13 10:11:13;;;;;;;9.57;2.38;;;24.20;51.20;;;;;;5030425;28;20049;-52
2023/06/13 10:13:48;;;;;;;4.95;2.08;;;24.40;49.30;;;;;;5026146;28;20478;-48
2023/06/13 10:16:15;;;;;;;5.03;2.33;;;24.30;50.10;;;;;;5027727;28;20527;-48
2023/06/13 10:18:45;;;;;;;6.43;2.05;;;24.20;49.80;;;;;;5030247;28;20052;-47
2023/06/13 10:21:13;;;;;;;8.73;2.40;;;24.20;48.70;;;;;;5030553;28;20788;-53
2023/06/13 10:23:51;;;;;;;5.20;1.92;;;24.20;49.60;;;;;;5031332;28;20039;-48
2023/06/13 10:26:42;;;;;;;5.20;2.33;;;24.20;51.40;;;;;;5028849;28;20091;-50
2023/06/13 10:29:32;;;;;;;5.10;1.85;;;24.40;49.30;;;;;;5027960;28;20469;-48
2023/06/13 10:32:43;;;;;;;6.53;2.70;;;24.30;47.30;;;;;;5028907;28;20029;-48
2023/06/13 10:35:48;;;;;;;6.53;2.50;;;24.40;50.00;;;;;;5031491;28;20026;-48
2023/06/13 10:38:54;;;;;;;5.47;2.30;;;24.60;49.60;;;;;;5028596;28;20108;-48
2023/06/13 10:41:57;;;;;;;4.32;2.47;;;24.60;49.30;;;;;;5029976;28;20034;-50
2023/06/13 10:44:38;;;;;;;6.80;2.97;;;24.60;48.10;;;;;;5026713;28;20057;-51
2023/06/13 10:47:07;;;;;;;10.18;2.92;;;24.70;49.70;;;;;;5028226;28;20056;-50
2023/06/13 10:49:39;;;;;;;2.97;1.95;;;24.50;49.10;;;;;;5030208;28;20095;-48
2023/06/13 10:52:11;;;;;;;4.97;2.30;;;24.90;49.80;;;;;;5027226;28;20026;-50
2023/06/13 10:54:40;;;;;;;5.18;2.67;;;25.20;50.60;;;;;;5030853;28;20439;-48
2023/06/13 10:57:07;;;;;;;5.28;2.60;;;25.20;50.40;;;;;;5028138;28;20040;-49
2023/06/13 10:59:40;;;;;;;5.75;2.38;;;25.30;48.80;;;;;;5028123;28;20044;-51
2023/06/13 11:02:15;;;;;;;9.40;2.67;;;25.10;47.40;;;;;;5014895;28;20367;-50
2023/06/13 11:04:52;;;;;;;7.35;2.65;;;25.30;47.20;;;;;;5029337;28;20790;-48
2023/06/13 11:07:23;;;;;;;6.18;2.33;;;25.50;47.90;;;;;;5027147;28;20695;-52
2023/06/13 11:10:11;;;;;;;8.82;3.22;;;25.40;47.40;;;;;;5030397;28;20029;-49
2023/06/13 11:12:41;;;;;;;6.88;2.65;;;25.30;51.00;;;;;;5030523;28;20084;-48
2023/06/13 11:15:28;;;;;;;5.38;2.30;;;25.30;48.70;;;;;;5028624;28;20120;-51
2023/06/13 11:18:14;;;;;;;5.88;2.90;;;25.40;50.60;;;;;;5030416;28;20033;-50
2023/06/13 11:20:57;;;;;;;7.45;2.42;;;25.50;50.20;;;;;;5029669;28;20526;-50
2023/06/13 11:23:38;;;;;;;6.72;2.40;;;25.30;47.30;;;;;;5028593;28;20041;-48
2023/06/13 11:26:05;;;;;;;8.05;3.10;;;25.30;47.80;;;;;;5030454;28;20040;-48
2023/06/13 11:28:32;;;;;;;4.93;2.92;;;25.10;47.30;;;;;;5027682;28;20022;-48
2023/06/13 11:31:06;;;;;;;7.75;2.35;;;24.80;49.20;;;;;;5026200;28;20080;-50
2023/06/13 11:33:41;;;;;;;7.00;2.45;;;24.80;49.60;;;;;;5027101;28;20029;-48
2023/06/13 11:36:09;;;;;;;7.40;2.60;;;24.80;49.30;;;;;;5030160;28;20321;-48
2023/06/13 11:38:43;;;;;;;7.80;3.00;;;24.90;48.40;;;;;;5025711;28;20025;-51
2023/06/13 11:41:14;;;;;;;7.45;2.72;;;25.00;48.10;;;;;;5012298;28;20128;-48
2023/06/13 11:43:39;;;;;;;6.10;2.55;;;24.70;47.40;;;;;;5027659;28;20053;-48
2023/06/13 11:46:06;;;;;;;5.00;2.30;;;24.60;50.90;;;;;;5027795;28;20053;-48
2023/06/13 11:48:33;;;;;;;6.18;2.40;;;24.60;50.00;;;;;;5031740;28;20025;-52
2023/06/13 11:51:13;;;;;;;6.75;2.75;;;24.80;50.30;;;;;;5029497;28;20447;-51
2023/06/13 11:53:54;;;;;;;8.00;2.75;;;24.90;49.00;;;;;;5031670;28;20033;-50
2023/06/13 11:56:25;;;;;;;9.57;3.85;;;25.10;50.20;;;;;;5028748;28;20029;-50
2023/06/13 11:58:54;;;;;;;5.82;2.45;;;25.00;49.70;;;;;;5028581;28;20044;-52
2023/06/13 12:01:26;;;;;;;7.07;2.85;;;25.10;51.30;;;;;;5027984;28;20163;-50
2023/06/13 12:03:55;;;;;;;7.35;3.40;;;25.20;50.80;;;;;;5031669;28;20037;-49
2023/06/13 12:06:24;;;;;;;11.63;3.20;;;25.20;51.50;;;;;;5031886;28;20044;-53
2023/06/13 12:08:52;;;;;;;8.10;2.42;;;24.90;50.90;;;;;;5024958;28;20033;-50
2023/06/13 12:11:20;;;;;;;9.35;3.63;;;24.80;52.10;;;;;;5027949;28;20033;-48
2023/06/13 12:13:54;;;;;;;12.50;3.72;;;24.60;53.70;;;;;;5027164;28;20029;-48
2023/06/13 12:16:25;;;;;;;6.97;2.92;;;24.60;54.80;;;;;;5027774;28;20467;-52
2023/06/13 12:18:53;;;;;;;7.88;2.75;;;24.60;52.60;;;;;;5028159;28;20041;-49
2023/06/13 12:21:30;;;;;;;4.68;2.83;;;24.40;53.40;;;;;;5023148;28;20021;-50
2023/06/13 12:24:02;;;;;;;6.20;3.10;;;24.30;55.30;;;;;;5024177;28;20596;-48
2023/06/13 12:26:32;;;;;;;6.25;2.65;;;24.40;54.30;;;;;;5027405;28;20100;-49
2023/06/13 12:29:11;;;;;;;4.63;2.70;;;24.30;55.30;;;;;;5027318;28;20041;-48
2023/06/13 12:31:42;;;;;;;5.70;2.33;;;24.40;55.10;;;;;;5025020;28;20108;-51
2023/06/13 12:34:33;;;;;;;4.03;2.38;;;24.50;54.50;;;;;;5027380;28;20412;-52
2023/06/13 12:37:04;;;;;;;5.75;2.42;;;24.40;55.80;;;;;;5027765;28;20033;-50
2023/06/13 12:39:35;;;;;;;5.88;2.30;;;24.30;55.20;;;;;;5027207;28;20421;-51
2023/06/13 12:42:08;;;;;;;6.97;3.10;;;24.20;56.60;;;;;;5020224;28;20053;-51
2023/06/13 12:44:38;;;;;;;7.00;2.72;;;24.20;55.50;;;;;;5020551;28;20037;-47
2023/06/13 12:47:06;;;;;;;5.28;2.75;;;24.10;57.60;;;;;;5026152;28;20463;-50
2023/06/13 12:49:36;;;;;;;7.28;2.53;;;24.10;58.50;;;;;;5028667;28;20160;-48
2023/06/13 12:52:05;;;;;;;7.35;2.95;;;24.00;56.40;;;;;;5028176;28;20029;-49
2023/06/13 12:54:34;;;;;;;9.10;3.00;;;24.00;59.40;;;;;;5027514;28;20569;-50
2023/06/13 12:57:03;;;;;;;8.63;3.17;;;24.10;57.60;;;;;;5031653;28;20432;-47
2023/06/13 12:59:35;;;;;;;11.85;3.10;;;24.20;61.60;;;;;;5027953;28;20109;-47
2023/06/13 13:02:05;;;;;;;7.13;2.60;;;24.20;58.80;;;;;;5027481;28;20033;-48
2023/06/13 13:04:32;;;;;;;9.18;3.00;;;24.30;56.90;;;;;;5012803;28;20037;-47